Time;durP1;ratioP1;P1;durP2;ratioP2;P2;SDS_P1;SDS_P2;PMS_P1;PMS_P2;Temp;Humidity;BMP_temperature;BMP_pressure;BME280_temperature;BME280_humidity;BME280_pressure;Samples;Min_cycle;Max_cycle;Signal;HPM_P1;HPM_P2
2022/11/15 00:01:34;;;;;;;50.20;28.67;;;7.00;99.90;;;;;;5013658;28;20243;-78
2022/11/15 00:04:01;;;;;;;49.37;30.40;;;7.00;99.90;;;;;;5002589;28;20298;-78
2022/11/15 00:06:29;;;;;;;51.50;29.93;;;7.00;99.90;;;;;;4993428;28;20632;-79
2022/11/15 00:08:58;;;;;;;49.40;29.87;;;7.10;99.90;;;;;;4994082;28;20216;-78
2022/11/15 00:11:25;;;;;;;56.37;30.70;;;7.10;99.90;;;;;;4994084;28;20196;-78
2022/11/15 00:13:55;;;;;;;55.17;31.10;;;7.10;99.90;;;;;;4993497;28;20231;-78
2022/11/15 00:16:22;;;;;;;58.63;31.23;;;7.10;99.90;;;;;;4993783;28;20207;-78
2022/11/15 00:18:49;;;;;;;53.87;30.53;;;7.10;99.90;;;;;;4994247;28;20523;-78
2022/11/15 00:21:16;;;;;;;51.40;31.43;;;7.10;99.90;;;;;;4993027;28;20236;-78
2022/11/15 00:23:45;;;;;;;55.07;30.77;;;7.10;99.90;;;;;;4993896;28;20290;-78
2022/11/15 00:26:14;;;;;;;54.63;31.37;;;7.10;99.90;;;;;;4994075;28;20216;-79
2022/11/15 00:28:41;;;;;;;57.77;34.63;;;7.10;99.90;;;;;;4993123;28;20216;-77
2022/11/15 00:31:15;;;;;;;57.40;32.77;;;7.20;99.90;;;;;;5011855;28;20203;-78
2022/11/15 00:33:44;;;;;;;58.53;33.03;;;7.20;99.90;;;;;;5012453;28;20194;-77
2022/11/15 00:36:11;;;;;;;57.60;32.77;;;7.10;99.90;;;;;;5012388;28;20290;-77
2022/11/15 00:38:40;;;;;;;65.67;35.23;;;7.10;99.90;;;;;;5012939;28;20592;-78
2022/11/15 00:41:08;;;;;;;61.90;33.33;;;7.20;99.90;;;;;;5011771;28;20954;-78
2022/11/15 00:43:36;;;;;;;61.97;34.20;;;7.20;99.90;;;;;;5012329;28;20215;-78
2022/11/15 00:46:02;;;;;;;57.73;33.20;;;7.20;99.90;;;;;;5012910;28;20205;-78
2022/11/15 00:48:30;;;;;;;68.90;35.37;;;7.20;99.90;;;;;;5012006;28;20199;-77
2022/11/15 00:50:56;;;;;;;66.20;33.80;;;7.20;99.90;;;;;;5013158;28;20220;-78
2022/11/15 00:53:23;;;;;;;63.77;34.13;;;7.30;99.90;;;;;;5012334;28;20211;-78
2022/11/15 00:55:50;;;;;;;61.93;34.67;;;7.30;99.90;;;;;;5012404;28;20496;-78
2022/11/15 00:58:18;;;;;;;71.43;35.50;;;7.30;99.90;;;;;;5012254;28;20290;-77
2022/11/15 01:00:45;;;;;;;69.83;34.63;;;7.30;99.90;;;;;;5012406;28;20231;-78
2022/11/15 01:03:12;;;;;;;70.80;36.53;;;7.30;99.90;;;;;;5010326;28;20716;-78
2022/11/15 01:05:39;;;;;;;72.60;38.47;;;7.40;99.90;;;;;;5005780;28;20196;-77
2022/11/15 01:08:06;;;;;;;66.37;35.37;;;7.40;99.90;;;;;;4992944;28;20620;-78
2022/11/15 01:10:33;;;;;;;70.90;38.13;;;7.40;99.90;;;;;;4992597;28;20199;-77
2022/11/15 01:12:59;;;;;;;70.87;36.07;;;7.40;99.90;;;;;;4992793;28;20204;-77
2022/11/15 01:15:28;;;;;;;68.50;36.27;;;7.40;99.90;;;;;;5004203;28;20207;-77
2022/11/15 01:17:55;;;;;;;73.37;37.70;;;7.40;99.90;;;;;;5012048;28;20286;-78
2022/11/15 01:20:22;;;;;;;75.27;38.33;;;7.40;99.90;;;;;;5008506;28;20216;-77
2022/11/15 01:22:49;;;;;;;82.83;39.33;;;7.40;99.90;;;;;;4992862;28;20305;-78
2022/11/15 01:25:16;;;;;;;73.53;37.63;;;7.50;99.90;;;;;;4992232;28;20196;-78
2022/11/15 01:27:42;;;;;;;79.83;37.70;;;7.50;99.90;;;;;;5009733;28;20207;-79
2022/11/15 01:30:10;;;;;;;87.80;38.57;;;7.50;99.90;;;;;;5011630;28;20286;-77
2022/11/15 01:32:38;;;;;;;81.47;37.73;;;7.50;99.90;;;;;;5007515;28;20195;-77
2022/11/15 01:35:06;;;;;;;75.77;37.53;;;7.50;99.90;;;;;;4992616;28;20619;-77
2022/11/15 01:37:32;;;;;;;81.33;38.40;;;7.50;99.90;;;;;;4992727;28;20208;-78
2022/11/15 01:39:59;;;;;;;76.93;37.90;;;7.50;99.90;;;;;;4992380;28;20840;-77
2022/11/15 01:42:26;;;;;;;78.47;35.90;;;7.50;99.90;;;;;;5005428;28;20225;-77
2022/11/15 01:44:54;;;;;;;78.07;38.60;;;7.50;99.90;;;;;;5011728;28;20207;-78
2022/11/15 01:47:24;;;;;;;77.13;38.53;;;7.50;99.90;;;;;;5011774;28;20281;-77
2022/11/15 01:49:58;;;;;;;84.87;38.53;;;7.60;99.90;;;;;;5009419;28;20215;-76
2022/11/15 01:52:28;;;;;;;84.90;39.27;;;7.60;99.90;;;;;;4991780;28;20253;-77
2022/11/15 01:55:00;;;;;;;79.33;36.57;;;7.60;99.90;;;;;;4992435;28;20196;-78
2022/11/15 01:57:27;;;;;;;76.47;37.90;;;7.60;99.90;;;;;;4992983;28;20196;-78
2022/11/15 01:59:53;;;;;;;82.90;38.83;;;7.60;99.90;;;;;;4991783;28;20243;-77
2022/11/15 02:02:21;;;;;;;84.60;40.03;;;7.60;99.90;;;;;;4992183;28;20231;-77
2022/11/15 02:04:48;;;;;;;75.37;37.57;;;7.60;99.90;;;;;;5001730;28;20349;-77
2022/11/15 02:07:19;;;;;;;76.83;39.07;;;7.60;99.90;;;;;;5011163;28;20208;-77
2022/11/15 02:09:47;;;;;;;82.67;37.97;;;7.60;99.90;;;;;;5011004;28;20226;-77
2022/11/15 02:12:18;;;;;;;75.57;36.03;;;7.60;99.90;;;;;;5011781;28;20195;-77
2022/11/15 02:14:49;;;;;;;74.80;36.33;;;7.60;99.90;;;;;;5008172;28;20499;-79
2022/11/15 02:17:39;;;;;;;67.07;35.07;;;7.60;99.90;;;;;;5011706;28;20203;-78
2022/11/15 02:20:36;;;;;;;78.87;36.50;;;7.60;99.90;;;;;;5014401;28;20504;-78
2022/11/15 02:23:32;;;;;;;75.47;35.77;;;7.60;99.90;;;;;;5015179;28;20250;-78
2022/11/15 02:26:15;;;;;;;70.10;33.37;;;7.60;99.90;;;;;;5015665;28;20198;-78
2022/11/15 02:28:52;;;;;;;65.47;34.57;;;7.60;99.90;;;;;;5010294;28;20200;-77
2022/11/15 02:31:29;;;;;;;70.60;35.07;;;7.70;99.90;;;;;;4995833;28;20218;-79
2022/11/15 02:34:03;;;;;;;80.83;36.33;;;7.70;99.90;;;;;;4998710;28;20607;-77
2022/11/15 02:36:39;;;;;;;65.77;35.60;;;7.60;99.90;;;;;;4995143;28;20189;-77
2022/11/15 02:39:12;;;;;;;77.87;36.83;;;7.70;99.90;;;;;;4995511;28;20196;-77
2022/11/15 02:41:48;;;;;;;84.37;37.57;;;7.60;99.90;;;;;;4995077;28;20215;-78
2022/11/15 02:44:20;;;;;;;76.20;37.00;;;7.70;99.90;;;;;;5008633;28;20195;-77
2022/11/15 02:49:40;;;;;;;93.93;38.33;;;7.70;99.90;;;;;;5014352;28;20270;-78
2022/11/15 02:52:07;;;;;;;81.70;35.27;;;7.70;99.90;;;;;;5015328;28;20457;-77
2022/11/15 02:54:35;;;;;;;96.63;37.80;;;7.70;99.90;;;;;;5013829;28;20584;-78
2022/11/15 02:57:05;;;;;;;84.83;39.87;;;7.70;99.90;;;;;;5014684;28;20198;-78
2022/11/15 03:00:05;;;;;;;77.97;37.73;;;7.70;99.90;;;;;;5015013;28;20337;-78
2022/11/15 03:02:53;;;;;;;78.20;37.37;;;7.70;99.90;;;;;;5014053;28;20695;-77
2022/11/15 03:05:30;;;;;;;85.50;37.83;;;7.80;99.90;;;;;;5014933;28;20283;-77
2022/11/15 03:08:03;;;;;;;80.50;36.53;;;7.80;99.90;;;;;;5014270;28;20199;-78
2022/11/15 03:10:41;;;;;;;99.40;39.97;;;7.80;99.90;;;;;;5014060;28;20294;-78
2022/11/15 03:13:20;;;;;;;89.30;36.67;;;7.80;99.90;;;;;;5014055;28;20211;-78
2022/11/15 03:15:55;;;;;;;91.13;38.87;;;7.80;99.90;;;;;;5013853;28;20195;-78
2022/11/15 03:18:30;;;;;;;98.90;41.00;;;7.80;99.90;;;;;;5013731;28;20293;-76
2022/11/15 03:21:00;;;;;;;88.17;39.47;;;7.90;99.90;;;;;;5014092;28;20198;-78
2022/11/15 03:23:29;;;;;;;99.97;40.50;;;7.90;99.90;;;;;;5005022;28;20810;-78
2022/11/15 03:25:59;;;;;;;100.40;40.87;;;8.00;99.90;;;;;;4994994;28;20209;-78
2022/11/15 03:28:33;;;;;;;109.93;41.57;;;8.00;99.90;;;;;;4994183;28;20203;-77
2022/11/15 03:31:46;;;;;;;96.87;41.23;;;8.00;99.90;;;;;;4994849;28;20218;-77
2022/11/15 03:33:53;;;;;;;94.00;39.97;;;8.00;99.90;;;;;;4994138;28;20206;-78
2022/11/15 03:36:22;;;;;;;100.57;41.10;;;8.10;99.90;;;;;;4994826;28;20189;-77
2022/11/15 03:38:50;;;;;;;101.00;41.73;;;8.10;99.90;;;;;;4994058;28;20224;-78
2022/11/15 03:41:22;;;;;;;116.47;44.33;;;8.10;99.90;;;;;;4994318;28;20302;-78
2022/11/15 03:43:56;;;;;;;105.63;43.27;;;8.20;99.90;;;;;;4998551;28;20200;-77
2022/11/15 03:46:28;;;;;;;91.87;39.60;;;8.20;99.90;;;;;;5014118;28;20191;-78
2022/11/15 03:49:02;;;;;;;84.40;39.40;;;8.20;99.90;;;;;;5013243;28;20187;-79
2022/11/15 03:51:30;;;;;;;100.40;41.73;;;8.30;99.90;;;;;;4993566;28;20307;-77
2022/11/15 03:53:57;;;;;;;93.90;39.93;;;8.30;99.90;;;;;;5004568;28;20207;-78
2022/11/15 03:56:24;;;;;;;114.93;42.57;;;8.30;99.90;;;;;;5013889;28;20294;-77
2022/11/15 03:58:51;;;;;;;101.00;42.07;;;8.40;99.90;;;;;;5012618;28;20278;-77
2022/11/15 04:01:18;;;;;;;92.93;41.20;;;8.40;99.90;;;;;;5012950;28;20198;-77
2022/11/15 04:03:45;;;;;;;89.60;40.33;;;8.40;99.90;;;;;;5013675;28;20221;-77
2022/11/15 04:06:13;;;;;;;113.07;43.83;;;8.40;99.90;;;;;;5012947;28;20258;-78
2022/11/15 04:08:40;;;;;;;109.07;44.80;;;8.50;99.90;;;;;;5013642;28;20204;-76
2022/11/15 04:11:07;;;;;;;101.03;42.30;;;8.50;99.90;;;;;;5007321;28;20234;-77
2022/11/15 04:13:34;;;;;;;97.60;42.00;;;8.60;99.90;;;;;;4993537;28;20197;-76
2022/11/15 04:16:00;;;;;;;101.87;42.97;;;8.60;99.90;;;;;;5011705;28;20214;-78
2022/11/15 04:18:27;;;;;;;117.53;43.43;;;8.60;99.90;;;;;;5013471;28;20657;-77
2022/11/15 04:26:24;;;;;;;103.20;42.67;;;8.70;99.90;;;;;;5004007;28;20218;-77
2022/11/15 04:31:35;;;;;;;113.37;46.90;;;8.80;99.90;;;;;;5013260;28;20234;-77
2022/11/15 04:34:02;;;;;;;100.07;44.83;;;8.80;99.90;;;;;;5010908;28;20289;-77
2022/11/15 04:39:15;;;;;;;98.80;45.90;;;8.80;99.90;;;;;;5011221;28;20190;-76
2022/11/15 04:41:41;;;;;;;102.73;46.57;;;8.90;99.90;;;;;;4992008;28;20200;-78
2022/11/15 04:44:09;;;;;;;111.93;45.90;;;8.90;99.90;;;;;;4993806;28;20501;-77
2022/11/15 04:46:36;;;;;;;101.23;46.07;;;8.90;99.90;;;;;;4993029;28;20200;-77
2022/11/15 04:49:03;;;;;;;98.13;44.87;;;9.00;99.90;;;;;;4999440;28;20514;-76
2022/11/15 04:51:30;;;;;;;101.37;45.77;;;9.00;99.90;;;;;;5012786;28;20223;-77
2022/11/15 04:53:56;;;;;;;98.93;44.73;;;9.10;99.90;;;;;;4995517;28;20226;-77
2022/11/15 04:56:25;;;;;;;90.50;44.83;;;9.10;99.90;;;;;;4992264;28;20275;-77
2022/11/15 04:58:52;;;;;;;99.23;44.03;;;9.20;99.90;;;;;;4993252;28;20196;-77
2022/11/15 05:01:19;;;;;;;88.93;45.37;;;9.30;99.90;;;;;;5008247;28;20282;-78
2022/11/15 05:06:31;;;;;;;83.50;42.20;;;9.30;99.90;;;;;;5013539;28;20544;-76
2022/11/15 05:08:58;;;;;;;93.17;44.73;;;9.40;99.90;;;;;;5011739;28;20304;-77
2022/11/15 05:11:27;;;;;;;89.20;44.13;;;9.40;99.90;;;;;;5012473;28;20203;-77
2022/11/15 05:13:54;;;;;;;85.30;43.37;;;9.40;99.90;;;;;;5012441;28;20278;-77
2022/11/15 05:16:20;;;;;;;94.27;45.37;;;9.50;99.90;;;;;;5002921;28;20208;-76
2022/11/15 05:18:47;;;;;;;84.27;42.30;;;9.50;99.90;;;;;;4992768;28;20208;-76
2022/11/15 05:21:16;;;;;;;84.43;41.93;;;9.50;99.90;;;;;;4992528;28;20204;-77
2022/11/15 05:23:43;;;;;;;83.77;41.73;;;9.60;99.90;;;;;;4992433;28;20577;-77
2022/11/15 05:26:11;;;;;;;87.83;43.63;;;9.60;99.90;;;;;;4993057;28;20204;-77
2022/11/15 05:28:39;;;;;;;83.67;40.97;;;9.60;99.90;;;;;;4992373;28;20210;-77
2022/11/15 05:31:07;;;;;;;70.97;39.60;;;9.60;99.90;;;;;;4992254;28;20204;-77
2022/11/15 05:33:36;;;;;;;85.23;43.07;;;9.70;99.90;;;;;;4992460;28;20509;-77
2022/11/15 05:36:08;;;;;;;76.13;39.03;;;9.70;99.90;;;;;;4992606;28;20204;-77
2022/11/15 05:38:35;;;;;;;72.97;40.33;;;9.70;99.90;;;;;;4992219;28;20222;-77
2022/11/15 05:41:02;;;;;;;67.07;37.70;;;9.80;99.90;;;;;;4992226;28;20192;-77
2022/11/15 05:43:31;;;;;;;67.37;37.27;;;9.80;99.90;;;;;;4992142;28;20235;-77
2022/11/15 05:46:01;;;;;;;75.07;39.57;;;9.80;99.90;;;;;;4992567;28;20291;-77
2022/11/15 05:48:28;;;;;;;71.57;39.30;;;9.80;99.90;;;;;;4992495;28;20604;-77
2022/11/15 05:50:56;;;;;;;61.70;36.93;;;9.90;99.90;;;;;;4992594;28;20355;-77
2022/11/15 05:53:25;;;;;;;77.20;38.03;;;9.90;99.90;;;;;;4995561;28;20195;-77
2022/11/15 05:55:53;;;;;;;63.27;34.40;;;9.90;99.90;;;;;;4997199;28;20557;-77
2022/11/15 05:58:21;;;;;;;71.97;38.13;;;9.90;99.90;;;;;;4996146;28;20214;-77
2022/11/15 06:00:48;;;;;;;57.27;34.63;;;10.00;99.90;;;;;;4996627;28;20234;-78
2022/11/15 06:03:16;;;;;;;65.57;36.00;;;10.00;99.90;;;;;;5015707;28;20242;-78
2022/11/15 06:05:43;;;;;;;68.83;35.33;;;10.00;99.90;;;;;;5014201;28;20207;-77
2022/11/15 06:08:10;;;;;;;57.50;34.63;;;10.00;99.90;;;;;;5015727;28;20206;-78
2022/11/15 06:10:37;;;;;;;53.37;33.43;;;10.10;99.90;;;;;;5015801;28;20205;-78
2022/11/15 06:13:05;;;;;;;60.77;34.53;;;10.10;99.90;;;;;;5011735;28;20199;-78
2022/11/15 06:15:34;;;;;;;50.03;33.13;;;10.10;99.90;;;;;;4996029;28;20600;-78
2022/11/15 06:18:01;;;;;;;60.67;35.13;;;10.10;99.90;;;;;;4996151;28;20192;-78
2022/11/15 06:20:30;;;;;;;50.07;31.97;;;10.10;99.90;;;;;;4995172;28;20717;-78
2022/11/15 06:22:58;;;;;;;64.93;35.90;;;10.20;99.90;;;;;;5015100;28;20547;-77
2022/11/15 06:25:25;;;;;;;49.47;32.50;;;10.20;99.90;;;;;;5015181;28;20207;-76
2022/11/15 06:27:53;;;;;;;49.33;31.97;;;10.20;99.90;;;;;;5015169;28;20201;-77
2022/11/15 06:30:20;;;;;;;53.23;33.77;;;10.10;99.90;;;;;;5015885;28;20206;-77
2022/11/15 06:32:47;;;;;;;51.77;31.93;;;10.10;99.90;;;;;;5015202;28;20287;-77
2022/11/15 06:35:15;;;;;;;60.40;32.97;;;10.10;99.90;;;;;;5014916;28;20239;-77
2022/11/15 06:37:43;;;;;;;45.53;31.87;;;10.20;99.90;;;;;;5015661;28;20199;-77
2022/11/15 06:40:11;;;;;;;51.63;30.03;;;10.20;99.90;;;;;;5014516;28;20630;-77
2022/11/15 06:42:38;;;;;;;43.70;27.07;;;10.20;99.90;;;;;;5013931;28;20245;-78
2022/11/15 06:45:06;;;;;;;43.57;27.67;;;10.20;99.90;;;;;;5015182;28;20211;-76
2022/11/15 06:47:33;;;;;;;48.67;28.60;;;10.10;99.90;;;;;;5008986;28;20295;-77
2022/11/15 06:49:59;;;;;;;42.93;28.93;;;10.10;99.90;;;;;;4995756;28;20310;-77
2022/11/15 06:52:26;;;;;;;48.67;27.00;;;10.10;99.90;;;;;;5004113;28;20199;-77
2022/11/15 06:54:54;;;;;;;43.73;25.97;;;10.00;99.90;;;;;;5014206;28;20211;-77
2022/11/15 06:57:21;;;;;;;42.70;25.37;;;10.00;99.90;;;;;;5015208;28;20203;-77
2022/11/15 06:59:48;;;;;;;39.47;25.20;;;10.00;99.90;;;;;;5011205;28;20231;-76
2022/11/15 07:02:15;;;;;;;38.50;24.33;;;10.00;99.90;;;;;;4994958;28;20247;-76
2022/11/15 07:04:42;;;;;;;36.47;24.40;;;10.00;99.90;;;;;;5008610;28;20213;-77
2022/11/15 07:07:09;;;;;;;39.97;25.57;;;10.00;99.90;;;;;;5014151;28;20203;-77
2022/11/15 07:09:36;;;;;;;45.47;25.90;;;10.00;99.90;;;;;;5014052;28;20203;-77
2022/11/15 07:12:04;;;;;;;38.83;25.00;;;10.00;99.90;;;;;;5013631;28;20294;-77
2022/11/15 07:14:31;;;;;;;37.77;24.37;;;10.00;99.90;;;;;;5014221;28;20282;-77
2022/11/15 07:16:58;;;;;;;33.37;21.63;;;10.00;99.90;;;;;;5014250;28;20199;-77
2022/11/15 07:19:25;;;;;;;43.63;23.87;;;10.00;99.90;;;;;;5012171;28;20250;-77
2022/11/15 07:21:52;;;;;;;39.73;22.73;;;10.00;99.90;;;;;;5013604;28;20203;-77
2022/11/15 07:24:19;;;;;;;40.10;21.27;;;10.00;99.90;;;;;;5014055;28;20219;-77
2022/11/15 07:26:45;;;;;;;37.37;21.63;;;10.00;99.90;;;;;;5013531;28;20799;-77
2022/11/15 07:29:14;;;;;;;31.43;21.33;;;10.00;99.90;;;;;;5010614;28;20295;-76
2022/11/15 07:31:41;;;;;;;26.77;19.90;;;10.00;99.90;;;;;;5007716;28;20239;-77
2022/11/15 07:34:08;;;;;;;30.47;20.57;;;9.90;99.90;;;;;;5003617;28;20491;-76
2022/11/15 07:36:35;;;;;;;31.03;21.60;;;9.90;99.90;;;;;;5009324;28;20212;-77
2022/11/15 07:39:02;;;;;;;40.97;21.37;;;9.90;99.90;;;;;;5011927;28;20211;-78
2022/11/15 07:41:29;;;;;;;32.90;20.73;;;9.90;99.90;;;;;;5013897;28;20199;-78
2022/11/15 07:43:57;;;;;;;40.87;22.03;;;9.90;99.90;;;;;;5013314;28;20230;-77
2022/11/15 07:46:25;;;;;;;32.27;20.47;;;9.90;99.90;;;;;;5014285;28;20292;-78
2022/11/15 07:48:52;;;;;;;38.70;21.80;;;10.00;99.90;;;;;;4995716;28;20204;-78
2022/11/15 07:51:19;;;;;;;36.90;21.80;;;10.00;99.90;;;;;;4993546;28;20224;-76
2022/11/15 07:53:46;;;;;;;36.27;22.13;;;10.00;99.90;;;;;;5012470;28;20231;-77
2022/11/15 07:56:13;;;;;;;30.10;20.53;;;10.00;99.90;;;;;;5013854;28;20230;-78
2022/11/15 07:58:40;;;;;;;35.57;20.90;;;10.10;99.90;;;;;;5012356;28;20286;-78
2022/11/15 08:01:09;;;;;;;32.40;20.87;;;10.10;99.90;;;;;;5012692;28;20318;-78
2022/11/15 08:03:38;;;;;;;30.33;20.40;;;10.10;99.90;;;;;;5012916;28;20281;-77
2022/11/15 08:06:05;;;;;;;32.77;20.97;;;10.10;99.90;;;;;;5011800;28;20217;-77
2022/11/15 08:08:32;;;;;;;36.93;20.57;;;10.10;99.90;;;;;;5013381;28;20210;-77
2022/11/15 08:10:59;;;;;;;30.30;20.13;;;10.20;99.90;;;;;;5012267;28;20204;-77
2022/11/15 08:13:26;;;;;;;33.50;20.00;;;10.20;99.90;;;;;;5013136;28;20200;-78
2022/11/15 08:15:57;;;;;;;25.63;18.50;;;10.20;99.90;;;;;;5012794;28;20495;-76
2022/11/15 08:18:24;;;;;;;28.60;18.73;;;10.30;99.90;;;;;;5011053;28;20215;-78
2022/11/15 08:20:52;;;;;;;29.37;17.83;;;10.30;99.90;;;;;;5012100;28;20207;-77
2022/11/15 08:23:19;;;;;;;25.57;17.20;;;10.20;99.90;;;;;;5013483;28;20246;-79
2022/11/15 08:25:46;;;;;;;28.20;16.13;;;10.20;99.90;;;;;;5011564;28;20638;-79
2022/11/15 08:28:13;;;;;;;28.27;16.13;;;10.20;99.90;;;;;;5009575;28;20222;-77
2022/11/15 08:30:42;;;;;;;23.60;15.97;;;10.10;99.90;;;;;;4991728;28;20733;-78
2022/11/15 08:33:12;;;;;;;21.00;15.20;;;10.10;99.90;;;;;;4991353;28;20200;-77
2022/11/15 08:35:40;;;;;;;21.80;14.83;;;10.10;99.90;;;;;;4992503;28;20203;-77
2022/11/15 08:38:08;;;;;;;23.83;14.33;;;10.10;99.90;;;;;;4991685;28;20560;-78
2022/11/15 08:40:36;;;;;;;25.33;14.00;;;10.10;99.90;;;;;;5002232;28;20215;-77
2022/11/15 08:43:03;;;;;;;24.90;15.87;;;10.10;99.90;;;;;;4995089;28;20226;-78
2022/11/15 08:45:31;;;;;;;20.23;13.07;;;10.20;99.90;;;;;;4993147;28;20206;-78
2022/11/15 08:47:58;;;;;;;22.73;13.60;;;10.10;99.90;;;;;;4993276;28;20676;-76
2022/11/15 08:50:25;;;;;;;21.10;13.53;;;10.20;99.90;;;;;;4993569;28;20222;-77
2022/11/15 08:52:51;;;;;;;23.87;14.60;;;10.20;99.90;;;;;;4993497;28;20292;-77
2022/11/15 08:55:20;;;;;;;22.50;14.93;;;10.20;99.90;;;;;;4993092;28;20286;-77
2022/11/15 08:57:47;;;;;;;24.23;14.83;;;10.20;99.90;;;;;;4993394;28;20291;-77
2022/11/15 09:00:15;;;;;;;23.40;15.43;;;10.30;99.90;;;;;;4992505;28;20239;-79
2022/11/15 09:02:41;;;;;;;25.23;15.30;;;10.30;99.90;;;;;;4992990;28;20601;-78
2022/11/15 09:05:09;;;;;;;20.87;14.07;;;10.40;99.90;;;;;;4997168;28;20207;-77
2022/11/15 09:07:36;;;;;;;23.17;14.50;;;10.40;99.90;;;;;;5012453;28;20779;-78
2022/11/15 09:10:03;;;;;;;21.27;14.70;;;10.40;99.90;;;;;;4997338;28;20574;-77
2022/11/15 09:12:31;;;;;;;25.57;13.97;;;10.40;99.90;;;;;;4992807;28;20219;-77
2022/11/15 09:14:58;;;;;;;23.97;13.67;;;10.40;99.90;;;;;;4993199;28;20203;-77
2022/11/15 09:17:25;;;;;;;22.53;13.30;;;10.50;99.90;;;;;;4997424;28;20265;-78
2022/11/15 09:19:52;;;;;;;23.83;14.27;;;10.50;99.90;;;;;;5012732;28;20548;-77
2022/11/15 09:22:19;;;;;;;25.87;14.97;;;10.50;99.90;;;;;;5011957;28;20207;-78
2022/11/15 09:24:46;;;;;;;26.03;15.60;;;10.60;99.90;;;;;;5012719;28;20234;-78
2022/11/15 09:27:13;;;;;;;27.03;15.83;;;10.60;99.90;;;;;;5004437;28;20287;-77
2022/11/15 09:29:41;;;;;;;23.70;15.53;;;10.70;99.90;;;;;;4991972;28;20250;-80
2022/11/15 09:32:08;;;;;;;22.27;16.80;;;10.70;99.90;;;;;;4992713;28;20618;-78
2022/11/15 09:34:35;;;;;;;20.67;15.73;;;10.80;99.90;;;;;;4993098;28;20291;-78
2022/11/15 09:37:02;;;;;;;25.37;16.00;;;10.90;99.90;;;;;;5006608;28;20203;-78
2022/11/15 09:39:28;;;;;;;26.23;16.20;;;10.90;99.90;;;;;;5011801;28;20286;-77
2022/11/15 09:42:08;;;;;;;26.10;15.43;;;11.00;99.90;;;;;;4999811;28;20214;-78
2022/11/15 09:44:53;;;;;;;26.30;15.47;;;11.10;99.90;;;;;;4992344;28;20652;-78
2022/11/15 09:47:38;;;;;;;22.67;13.63;;;11.10;99.90;;;;;;4993500;28;20203;-76
2022/11/15 09:50:12;;;;;;;19.67;14.07;;;11.20;99.90;;;;;;5002129;28;20314;-77
2022/11/15 09:52:42;;;;;;;17.67;12.87;;;11.20;99.90;;;;;;5012603;28;20281;-78
2022/11/15 09:55:11;;;;;;;17.67;11.73;;;11.20;99.90;;;;;;4994180;28;20287;-78
2022/11/15 09:57:42;;;;;;;17.33;12.03;;;11.20;99.90;;;;;;4992144;28;20254;-78
2022/11/15 10:00:17;;;;;;;14.37;11.17;;;11.20;99.90;;;;;;4991917;28;20544;-79
2022/11/15 10:03:00;;;;;;;18.27;10.97;;;11.30;99.90;;;;;;5004729;28;20281;-78
2022/11/15 10:05:29;;;;;;;18.43;10.00;;;11.20;99.90;;;;;;5011605;28;20195;-78
2022/11/15 10:08:04;;;;;;;16.10;9.53;;;11.30;99.90;;;;;;5011494;28;20242;-79
2022/11/15 10:10:37;;;;;;;15.43;9.20;;;11.30;99.90;;;;;;5011764;28;20199;-78
2022/11/15 10:13:04;;;;;;;13.73;8.17;;;11.30;99.90;;;;;;5010823;28;20203;-77
2022/11/15 10:15:33;;;;;;;13.20;7.80;;;11.30;99.90;;;;;;5011974;28;20250;-78
2022/11/15 10:18:14;;;;;;;13.80;8.37;;;11.40;99.90;;;;;;5003897;28;20208;-77
2022/11/15 10:20:48;;;;;;;13.30;8.00;;;11.40;99.90;;;;;;4992649;28;20291;-77
2022/11/15 10:23:18;;;;;;;11.03;8.33;;;11.40;99.90;;;;;;5011806;28;20211;-78
2022/11/15 10:25:45;;;;;;;11.50;8.17;;;11.50;99.90;;;;;;5011962;28;20201;-78
2022/11/15 10:28:16;;;;;;;11.93;7.70;;;11.60;99.90;;;;;;5011677;28;20286;-78
2022/11/15 10:30:46;;;;;;;12.93;7.50;;;11.60;99.90;;;;;;5012081;28;20569;-77
2022/11/15 10:33:19;;;;;;;12.67;7.30;;;11.60;99.90;;;;;;5011314;28;20200;-77
2022/11/15 10:35:46;;;;;;;12.43;7.17;;;11.60;99.90;;;;;;5011780;28;20216;-78
2022/11/15 10:38:14;;;;;;;11.77;7.43;;;11.70;99.90;;;;;;5006249;28;20312;-77
2022/11/15 10:40:43;;;;;;;13.30;8.20;;;11.70;99.90;;;;;;5014070;28;20202;-79
2022/11/15 10:43:19;;;;;;;10.37;7.30;;;11.80;99.90;;;;;;5015448;28;20254;-76
2022/11/15 10:45:49;;;;;;;9.43;6.63;;;11.80;99.90;;;;;;4996756;28;20290;-77
2022/11/15 10:48:26;;;;;;;11.33;8.00;;;11.90;99.90;;;;;;4995841;28;20188;-78
2022/11/15 10:50:54;;;;;;;11.20;6.97;;;11.90;99.90;;;;;;4996243;28;20384;-79
2022/11/15 10:53:26;;;;;;;13.63;7.03;;;12.00;99.90;;;;;;4998784;28;20210;-77
2022/11/15 10:55:55;;;;;;;9.07;6.87;;;11.90;99.90;;;;;;5014856;28;20204;-78
2022/11/15 10:58:31;;;;;;;16.23;7.73;;;12.00;99.90;;;;;;5015173;28;20199;-78
2022/11/15 11:01:14;;;;;;;11.53;7.13;;;12.00;99.90;;;;;;5014292;28;20326;-77
2022/11/15 11:03:42;;;;;;;9.40;7.03;;;12.00;99.90;;;;;;5014661;28;20302;-76
2022/11/15 11:06:12;;;;;;;12.57;6.80;;;12.00;99.90;;;;;;5015089;28;20202;-77
2022/11/15 11:08:40;;;;;;;9.07;5.90;;;12.00;99.90;;;;;;5014056;28;20206;-78
2022/11/15 11:11:08;;;;;;;10.70;6.30;;;12.10;99.90;;;;;;5014975;28;20612;-77
2022/11/15 11:13:37;;;;;;;9.17;5.97;;;12.10;99.90;;;;;;5014372;28;20213;-77
2022/11/15 11:16:37;;;;;;;12.90;6.27;;;12.20;99.90;;;;;;5014261;28;20487;-78
2022/11/15 11:19:24;;;;;;;9.10;5.93;;;12.20;99.90;;;;;;5013866;28;20241;-78
2022/11/15 11:22:01;;;;;;;9.73;4.97;;;12.20;99.90;;;;;;5014231;28;20761;-78
2022/11/15 11:24:35;;;;;;;10.57;5.27;;;12.20;99.90;;;;;;5014453;28;20231;-78
2022/11/15 11:27:18;;;;;;;7.27;4.67;;;12.10;99.90;;;;;;5014084;28;20203;-78
2022/11/15 11:29:57;;;;;;;11.37;4.80;;;12.10;99.90;;;;;;5014244;28;20192;-77
2022/11/15 11:32:39;;;;;;;14.47;4.53;;;12.10;99.90;;;;;;5014293;28;20203;-77
2022/11/15 11:35:13;;;;;;;8.30;4.57;;;12.10;99.90;;;;;;5006424;28;20204;-79
2022/11/15 11:37:47;;;;;;;6.63;4.10;;;12.00;99.90;;;;;;4995357;28;20204;-77
2022/11/15 11:40:26;;;;;;;6.37;3.90;;;12.00;99.90;;;;;;4994469;28;20204;-80
2022/11/15 11:42:59;;;;;;;13.23;4.67;;;12.10;99.90;;;;;;4994142;28;20509;-78
2022/11/15 11:45:49;;;;;;;7.30;3.60;;;12.10;99.90;;;;;;4994788;28;20233;-77
2022/11/15 11:48:27;;;;;;;8.13;3.97;;;12.10;99.90;;;;;;4994585;28;20351;-78
2022/11/15 11:50:57;;;;;;;7.83;4.03;;;12.20;99.90;;;;;;4993726;28;20224;-78
2022/11/15 11:53:29;;;;;;;7.33;4.50;;;12.30;99.90;;;;;;4994918;28;20230;-79
2022/11/15 11:56:02;;;;;;;6.97;4.17;;;12.30;99.90;;;;;;4994507;28;20195;-78
2022/11/15 11:58:36;;;;;;;10.10;4.00;;;12.30;99.90;;;;;;4995137;28;20294;-80
2022/11/15 12:01:11;;;;;;;8.67;3.23;;;12.30;99.90;;;;;;4990431;28;20235;-78
2022/11/15 12:03:43;;;;;;;7.87;3.07;;;12.30;99.90;;;;;;4993568;28;20200;-79
2022/11/15 12:06:22;;;;;;;7.87;3.13;;;12.40;99.90;;;;;;4994320;28;20199;-77
2022/11/15 12:08:54;;;;;;;8.60;3.30;;;12.50;99.90;;;;;;4994437;28;20207;-77
2022/11/15 12:11:27;;;;;;;8.10;3.53;;;12.50;99.90;;;;;;4993664;28;20188;-79
2022/11/15 12:13:59;;;;;;;9.00;3.23;;;12.50;99.90;;;;;;4994568;28;20207;-78
2022/11/15 12:16:29;;;;;;;6.33;2.87;;;12.60;99.90;;;;;;4994210;28;20208;-78
2022/11/15 12:19:01;;;;;;;7.53;2.57;;;12.60;99.90;;;;;;4993358;28;20208;-77
2022/11/15 12:21:35;;;;;;;5.90;2.77;;;12.60;99.90;;;;;;4997949;28;20200;-78
2022/11/15 12:24:06;;;;;;;7.03;2.93;;;12.60;99.90;;;;;;5013546;28;20210;-78
2022/11/15 12:26:38;;;;;;;6.57;3.03;;;12.70;99.90;;;;;;5012752;28;20203;-78
2022/11/15 12:29:10;;;;;;;5.87;2.77;;;12.60;99.90;;;;;;5012711;28;20561;-78
2022/11/15 12:31:40;;;;;;;6.70;2.53;;;12.60;99.90;;;;;;5012998;28;20214;-79
2022/11/15 12:34:30;;;;;;;7.17;2.80;;;12.60;99.90;;;;;;5013699;28;20199;-79
2022/11/15 12:36:57;;;;;;;6.77;2.83;;;12.60;99.90;;;;;;5010713;28;20208;-78
2022/11/15 12:39:57;;;;;;;5.20;2.50;;;12.60;99.90;;;;;;4993028;28;20208;-78
2022/11/15 12:42:41;;;;;;;7.23;3.13;;;12.50;99.90;;;;;;4993079;28;20206;-79
2022/11/15 12:45:27;;;;;;;7.33;2.97;;;12.50;99.90;;;;;;4993849;28;20204;-78
2022/11/15 12:47:56;;;;;;;6.03;2.70;;;12.50;99.90;;;;;;4993450;28;20577;-78
2022/11/15 12:50:55;;;;;;;9.57;2.60;;;12.50;99.90;;;;;;4993799;28;20227;-79
2022/11/15 12:53:29;;;;;;;8.53;2.67;;;12.40;99.90;;;;;;4992517;28;20196;-78
2022/11/15 12:56:22;;;;;;;4.97;2.60;;;12.40;99.90;;;;;;5003659;28;20283;-78
2022/11/15 12:58:52;;;;;;;9.07;2.67;;;12.40;99.90;;;;;;5012742;28;20199;-79
2022/11/15 13:01:57;;;;;;;9.33;2.73;;;12.40;99.90;;;;;;5008114;28;20727;-79
2022/11/15 13:04:26;;;;;;;10.20;2.67;;;12.40;99.90;;;;;;4993139;28;20759;-77
2022/11/15 13:06:55;;;;;;;9.30;3.10;;;12.40;99.90;;;;;;4992362;28;20218;-78
2022/11/15 13:09:56;;;;;;;3.40;1.93;;;12.40;99.90;;;;;;4993194;28;20211;-78